Timeline UpdatesTrip UpdatesNews PostsPvt PostsTravel TipsAdmin PostsConv PostsFollowed PostsChat RequestsBlog PostsPNR Posts

Disclaimer
Search
 
 
Sun Apr 20, 2014 17:13:29 ISTHomeTrainsΣChainsAtlasPNRForumGalleryNewsFAQTripsMembersLoginFeedback
No Recent News for this Train
Other Trains in the News **new
Latest...
.
Tue Nov 19, 2013 (11:56PM)
⇐ Return Journey: Train# 16859

16108⇒16860/Mangalore - Chennai Egmore Express

Nov 01 2013 (5:47AM)
Change Departure Station:
Change Arrival Station:
Post a Train Travel TipPost a Train Travel Tip **new
Post a Comment/Question/Picture/VideoPost a Comment/Question/Picture/Video
Inaugural Run
Wed Jul 02, 2003
Pantry/Catering
✕ NO Pantry Car
✓ Catering Avbl
Loco/Rake Reversals
TPJ/Tiruchchirappalli Junction (8);
RSA - Rake Sharing
16853/16854 Cholan Express
Rake/Coach Composition
MAQ to TPJ; Loco-SLR-GS-GS-S10-S9-S8-S7-S6-S5-S4-S3-S2-S1-D3-D2-D1-B2-B1-HA1-GS-SLR.; TPJ to MS; Loco-SLR-GS-HA1-B1-B2-D1-D2-D3-S1-S2-S3-S4-S5-S6-S7-S8-S9-S10-GS-GS-SLR.
Loco
GOC WDP 4D from MAQ - TPJ; ED/RPM WAP-4 from...
Read more...
TPJ-MAS Entry# 894390
News    PNR    Forum    Time-Table    Availability    Fare Chart    Map    Arr/Dep History    Trips    Gallery    ΣChains    X/O    Timeline    
Travel Time: 5h 7m    19 halts    Distance: 254 km    Avg Speed: 49 km/hr
Type: Mail/Express
Zone: SR/Southern
Departs @ 06:50 (Avg 2m late)
Platform# 1
SMTWTFS
Mangalore Central/MAQ 
Arrives @ 11:57 (Avg 20m late)
Platform# ???
SMTWTFS
Tanur/TA 

19 halts. 47 intermediate Stations between Mangalore Central and Tanur

Show ALL intermediate Stations  Show Old Time-Table

#CodeStation NameX/OArrivesAvgDepartsAvgHaltPFDay#KmSpeedElevZoneAddress
1MAQ»Mangalore Central (3)»  -06:50+2110.04014mSRMangalore 575001, Karnataka
2MJSManjeshwar (3)  07:15+307:16+31m--116.86312mSRManjeshwar, Kerala
3KMQKumbala (2)X  07:32+407:33+41m--133.59223mSRKumbla, Kerala
4KGQKasaragod (3)  07:41+707:43+72m--145.75718mSRTel: 04994 220800, Kerala
5KQKKottikkulam (2)  07:53+807:54+91m--155.29125mSRBekal, Kerala
6KZEKanhangad (3)  08:03+1308:05+122m--168.86215mSRKanhangad, Kerala
7NLENileshwar (2)  08:14+1508:15+151m--178.14512mSRNileswaram, Kerala
8CHVCharvattur (3)X  08:22+1508:23+151m--183.47414mSRKasaragod district, Kerala
9PAYPayyanur (3)X  08:35+1608:37+162m--198.1700mSRKannur District, Kerala
10PAZPayangadi  08:47+1708:48+171m--1109.85612mSRKannur District, Kerala
11KPQKannapuram (2)  08:56+1608:57+161m--1117.3319mSRKannur District, Kerala
12CANKannur Main (3)X  09:25+209:30+45m11131.86514mSRKannur Tel: 0497 2705555, Kerala
13TLYThalassery (2)  09:49+409:51+52m--1152.4559mSRKannur, Kerala
14MAHEMahe (2)  10:01+510:03+62m--1161.77716mSRMahe, Puducherry
15BDJVadakara (2)X  10:13+810:15+92m11174.67311mSRCalicut / Station Ph No : 0496-2524254, Kerala
16QLDKoyilandy (3)  10:33+1310:34+141m--1196.54111mSRQuilandi, Kerala
17CLTKozhikode Main (4)  11:10+611:15+85m11220.84311mSRCalicut Tel: 0495 2701234, Kerala
18FKFerok (2)  11:29+911:30+101m--1230.84019mSRFeroke, Kerala
19KNKadalundi (2)  11:37+1311:38+131m--1235.5708mSRKozhikode district, Kerala
20PGIParappangadi (2)X  11:47+1711:48+181m--1246.05419mSRParappanangadi, Kerala
21TA•Tanur (3)•X  11:57+2011:58+211m--1254.16011mSRMalappuram, Kerala
22TIRTirur (3)  12:06+2112:08+212m--1262.1509mSRTel: 0494 2422240, Kerala
23KTUKuttippuram (2)  12:26+1812:28+182m21277.16217mSRKuttippuram, Kerala
24PTBPattambi (2)  12:46+2012:47+201m--1295.61821mSRPattambi, Kerala
25SRRShoranur Junction (7)  13:25+213:30+85m41307.15926mSRShoranur ph.no 0466-2222913, Kerala
26OTPOttappalam (2)  13:43+1113:45+112m--1320.04730mSROttapalam, Kerala
27PGTPalakkad Junction (4)X  14:25+014:30+45m--1351.54884mSRPalghat Tel: 0491 2555231, Kerala
28PTJPodanur Junction (4)  15:32+215:35+43m--1401.329400mSRPodanur jtn ph.no. 0422-2410784, Tamil Nadu
29CBECoimbatore Main Junction (6)  15:47+515:50+83m51407.218411mSRCoimbatore 641001, Tamil Nadu
30CBFCoimbatore North (2)  15:59+916:00+91m21409.844431mSRCoimbatore 641012, Tamil Nadu
31PLMDPilamedu (3)  16:09+1116:10+121m--1416.475420mSRPilamedu ph.no. 0422-2572333, Tamil Nadu
32TUPTiruppur (2)X  16:43+1516:45+162m21457.859305mSRTiruppur. Ph:0421-2200450, Tamil Nadu
33UKLUttukuli (2)X  16:59+2017:00+231m--1471.540299mSRUthukuli ph.no. 04294-260213, Tamil Nadu
34EDErode Junction (4)X  17:55+718:05+2010m11507.767175mSRErode ph.no: 0424-2256111, Tamil Nadu
35URLUnjalurX  18:34+2218:35+231m--1540.2390mSRUnjalur ph.no. 04204-266131, Tamil Nadu
36KMDKodumudi  18:44+2318:45+291m--1546.152133mSRKodumudi, Tamil Nadu
37PGRPugalur (1)  18:59+3019:00+311m11558.221156mSRKarur, Tamil Nadu
38MPLMMoorthipalayam  19:14+2919:15+291m--1563.114159mSRErode - Unjalur - Kodumudi - Karur Rd, Tamil Nadu
39KRRKarur Junction (5)  19:55+320:00+65m--1572.669121mSRKarur Junction ph.no . 04324-274106, Tamil Nadu
40MMHMahadanapuram  20:22+1120:23+111m--1598.156104mSRMahadanapuram ph.no. 04323-242790, Tamil Nadu
41KLTKulitalai (1)  20:38+1220:40+142m11612.0450mSRKulithalai ph.no. 04323-222079, Tamil Nadu
42TPTiruchirappalli Fort (3)  21:24+1221:25+131m11645.2977mSRTiruchchirapalli fort ph.no. 0431-2704175, Tamil Nadu
43TPJTiruchchirappalli Junction (8)↵¶21:50+322:00+1210m31649.04585mSRTiruchchirapalli ph.no.0431-2413363, Tamil Nadu
44SRGMSrirangam (2)  22:16+2122:18+262m11660.97669mSRTiruchirapalli, Tamil Nadu
45ALUAriyalur (2)X  23:04+3023:05+331m21718.84470mSRAriyalur, Tamil Nadu
46VRIVriddhachalam Junction (4)X  00:18+2400:20+272m42772.54245mSRVriddhachalam ph.no. 04143-263767, Tamil Nadu
47VMVillupuram Junction (6)  01:38+1001:40+132m12827.25144mSRTrain Arrival / Departure Details : 04146 - 242781, Tamil Nadu
48TMVTindivanam (2)  02:24+2602:25+271m--2864.46547mSRTindivanam, Tamil Nadu
49MLMRMelmaruvathur (4)  02:53+3102:55+312m22894.65050mSRMelmaruvathur, Tamil Nadu
50CGLChengalpattu Junction (8)  03:38+2403:40+242m52930.16641mSRKanchipuram, Tamil Nadu
51TBMTambaram (9)  04:08+2404:10+242m52960.96032mSRTambaram., Tamil Nadu
52MBMMambalam (4)  04:28+704:30+72m32978.91213mSRChennai, Tamil Nadu
53MSChennai Egmore (11)  05:05+4-82985.6-8mSRChennai Ph No: 044-28194579, Tamil Nadu
Scroll to Top
Scroll to Bottom